sensor_id;sensor_type;location;lat;lon;timestamp;P1;durP1;ratioP1;P2;durP2;ratioP2
55545;SDS011;44768;50.298;127.520;2023-03-01T00:03:09;8.00;;;3.65;;
55545;SDS011;44768;50.298;127.520;2023-03-01T00:08:10;8.73;;;3.60;;
55545;SDS011;44768;50.298;127.520;2023-03-01T00:13:11;20.08;;;4.10;;
55545;SDS011;44768;50.298;127.520;2023-03-01T00:18:13;14.43;;;4.10;;
55545;SDS011;44768;50.298;127.520;2023-03-01T00:23:14;11.15;;;4.25;;
55545;SDS011;44768;50.298;127.520;2023-03-01T00:28:15;13.80;;;4.32;;
55545;SDS011;44768;50.298;127.520;2023-03-01T00:33:16;8.88;;;4.28;;
55545;SDS011;44768;50.298;127.520;2023-03-01T00:38:17;10.25;;;4.28;;
55545;SDS011;44768;50.298;127.520;2023-03-01T00:43:19;10.48;;;4.15;;
55545;SDS011;44768;50.298;127.520;2023-03-01T00:48:20;13.05;;;4.45;;
55545;SDS011;44768;50.298;127.520;2023-03-01T00:53:21;8.43;;;4.50;;
55545;SDS011;44768;50.298;127.520;2023-03-01T00:58:23;7.43;;;4.30;;
55545;SDS011;44768;50.298;127.520;2023-03-01T01:03:25;11.38;;;4.70;;
55545;SDS011;44768;50.298;127.520;2023-03-01T01:08:29;8.95;;;4.38;;
55545;SDS011;44768;50.298;127.520;2023-03-01T01:13:31;10.75;;;4.10;;
55545;SDS011;44768;50.298;127.520;2023-03-01T01:18:32;5.95;;;4.20;;
55545;SDS011;44768;50.298;127.520;2023-03-01T01:23:34;5.25;;;4.00;;
55545;SDS011;44768;50.298;127.520;2023-03-01T01:28:35;6.50;;;3.55;;
55545;SDS011;44768;50.298;127.520;2023-03-01T01:33:37;6.65;;;3.95;;
55545;SDS011;44768;50.298;127.520;2023-03-01T01:38:38;11.43;;;3.60;;
55545;SDS011;44768;50.298;127.520;2023-03-01T01:43:42;8.63;;;3.92;;
55545;SDS011;44768;50.298;127.520;2023-03-01T01:48:48;6.57;;;3.70;;
55545;SDS011;44768;50.298;127.520;2023-03-01T01:53:51;5.72;;;3.80;;
55545;SDS011;44768;50.298;127.520;2023-03-01T01:58:53;9.88;;;3.90;;
55545;SDS011;44768;50.298;127.520;2023-03-01T02:03:55;5.72;;;3.70;;
55545;SDS011;44768;50.298;127.520;2023-03-01T02:09:03;6.30;;;4.00;;
55545;SDS011;44768;50.298;127.520;2023-03-01T02:14:06;3.83;;;3.13;;
55545;SDS011;44768;50.298;127.520;2023-03-01T02:19:07;5.25;;;3.75;;
55545;SDS011;44768;50.298;127.520;2023-03-01T02:24:23;5.18;;;3.33;;
55545;SDS011;44768;50.298;127.520;2023-03-01T02:29:26;5.47;;;3.88;;
55545;SDS011;44768;50.298;127.520;2023-03-01T02:34:29;4.93;;;3.50;;
55545;SDS011;44768;50.298;127.520;2023-03-01T02:39:33;5.10;;;3.00;;
55545;SDS011;44768;50.298;127.520;2023-03-01T02:44:37;4.13;;;3.20;;
55545;SDS011;44768;50.298;127.520;2023-03-01T02:49:38;5.25;;;3.05;;
55545;SDS011;44768;50.298;127.520;2023-03-01T02:54:40;3.85;;;3.42;;
55545;SDS011;44768;50.298;127.520;2023-03-01T02:59:42;6.22;;;3.38;;
55545;SDS011;44768;50.298;127.520;2023-03-01T03:04:44;4.13;;;3.30;;
55545;SDS011;44768;50.298;127.520;2023-03-01T03:09:45;4.28;;;3.20;;
55545;SDS011;44768;50.298;127.520;2023-03-01T03:14:47;3.53;;;3.20;;
55545;SDS011;44768;50.298;127.520;2023-03-01T03:19:49;4.50;;;3.30;;
55545;SDS011;44768;50.298;127.520;2023-03-01T03:24:50;3.22;;;2.88;;
55545;SDS011;44768;50.298;127.520;2023-03-01T03:29:51;5.03;;;3.30;;
55545;SDS011;44768;50.298;127.520;2023-03-01T03:34:52;4.00;;;3.08;;
55545;SDS011;44768;50.298;127.520;2023-03-01T03:39:54;5.43;;;3.00;;
55545;SDS011;44768;50.298;127.520;2023-03-01T03:44:56;4.50;;;2.92;;
55545;SDS011;44768;50.298;127.520;2023-03-01T03:49:57;3.63;;;3.00;;
55545;SDS011;44768;50.298;127.520;2023-03-01T03:54:58;3.88;;;2.80;;
55545;SDS011;44768;50.298;127.520;2023-03-01T03:59:59;4.47;;;3.05;;
55545;SDS011;44768;50.298;127.520;2023-03-01T04:05:05;4.07;;;3.30;;
55545;SDS011;44768;50.298;127.520;2023-03-01T04:10:07;3.47;;;2.72;;
55545;SDS011;44768;50.298;127.520;2023-03-01T04:15:10;4.07;;;3.00;;
55545;SDS011;44768;50.298;127.520;2023-03-01T04:20:17;3.70;;;2.80;;
55545;SDS011;44768;50.298;127.520;2023-03-01T04:25:19;4.38;;;2.80;;
55545;SDS011;44768;50.298;127.520;2023-03-01T04:30:20;4.95;;;3.10;;
55545;SDS011;44768;50.298;127.520;2023-03-01T04:35:26;3.40;;;2.78;;
55545;SDS011;44768;50.298;127.520;2023-03-01T04:40:27;3.40;;;3.10;;
55545;SDS011;44768;50.298;127.520;2023-03-01T04:45:28;4.53;;;2.92;;
55545;SDS011;44768;50.298;127.520;2023-03-01T04:50:29;3.28;;;2.83;;
55545;SDS011;44768;50.298;127.520;2023-03-01T04:55:31;3.95;;;3.00;;
55545;SDS011;44768;50.298;127.520;2023-03-01T05:00:32;5.03;;;2.88;;
55545;SDS011;44768;50.298;127.520;2023-03-01T05:05:35;3.80;;;3.05;;
55545;SDS011;44768;50.298;127.520;2023-03-01T05:10:36;3.33;;;2.65;;
55545;SDS011;44768;50.298;127.520;2023-03-01T05:15:39;5.32;;;2.72;;
55545;SDS011;44768;50.298;127.520;2023-03-01T05:20:41;3.40;;;3.00;;
55545;SDS011;44768;50.298;127.520;2023-03-01T05:25:43;5.05;;;2.92;;
55545;SDS011;44768;50.298;127.520;2023-03-01T05:30:45;8.75;;;2.60;;
55545;SDS011;44768;50.298;127.520;2023-03-01T05:35:46;4.28;;;2.85;;
55545;SDS011;44768;50.298;127.520;2023-03-01T05:40:49;9.45;;;2.88;;
55545;SDS011;44768;50.298;127.520;2023-03-01T05:45:51;3.42;;;2.92;;
55545;SDS011;44768;50.298;127.520;2023-03-01T05:50:52;3.35;;;3.05;;
55545;SDS011;44768;50.298;127.520;2023-03-01T05:55:53;6.43;;;3.40;;
55545;SDS011;44768;50.298;127.520;2023-03-01T06:00:54;6.65;;;3.38;;
55545;SDS011;44768;50.298;127.520;2023-03-01T06:05:56;4.60;;;3.50;;
55545;SDS011;44768;50.298;127.520;2023-03-01T06:10:58;3.65;;;3.30;;
55545;SDS011;44768;50.298;127.520;2023-03-01T06:15:59;3.30;;;3.00;;
55545;SDS011;44768;50.298;127.520;2023-03-01T06:21:01;4.07;;;2.88;;
55545;SDS011;44768;50.298;127.520;2023-03-01T06:26:06;3.80;;;3.42;;
55545;SDS011;44768;50.298;127.520;2023-03-01T06:31:07;4.10;;;3.45;;
55545;SDS011;44768;50.298;127.520;2023-03-01T06:36:12;4.88;;;3.40;;
55545;SDS011;44768;50.298;127.520;2023-03-01T06:41:13;5.75;;;3.22;;
55545;SDS011;44768;50.298;127.520;2023-03-01T06:46:15;3.40;;;3.10;;
55545;SDS011;44768;50.298;127.520;2023-03-01T06:51:17;4.25;;;3.00;;
55545;SDS011;44768;50.298;127.520;2023-03-01T06:56:18;4.00;;;3.38;;
55545;SDS011;44768;50.298;127.520;2023-03-01T07:01:19;3.80;;;2.97;;
55545;SDS011;44768;50.298;127.520;2023-03-01T07:06:21;3.67;;;3.13;;
55545;SDS011;44768;50.298;127.520;2023-03-01T07:11:23;5.75;;;3.15;;
55545;SDS011;44768;50.298;127.520;2023-03-01T07:16:26;3.42;;;2.90;;
55545;SDS011;44768;50.298;127.520;2023-03-01T07:21:27;3.22;;;2.90;;
55545;SDS011;44768;50.298;127.520;2023-03-01T07:26:28;3.10;;;2.80;;
55545;SDS011;44768;50.298;127.520;2023-03-01T07:31:30;3.42;;;2.97;;
55545;SDS011;44768;50.298;127.520;2023-03-01T07:36:32;3.33;;;2.88;;
55545;SDS011;44768;50.298;127.520;2023-03-01T07:41:33;2.95;;;2.65;;
55545;SDS011;44768;50.298;127.520;2023-03-01T07:46:36;2.90;;;2.60;;
55545;SDS011;44768;50.298;127.520;2023-03-01T07:51:37;2.85;;;2.58;;
55545;SDS011;44768;50.298;127.520;2023-03-01T07:56:38;3.55;;;2.83;;
55545;SDS011;44768;50.298;127.520;2023-03-01T08:01:41;3.00;;;2.50;;
55545;SDS011;44768;50.298;127.520;2023-03-01T08:06:42;3.22;;;2.53;;
55545;SDS011;44768;50.298;127.520;2023-03-01T08:11:44;2.72;;;2.47;;
55545;SDS011;44768;50.298;127.520;2023-03-01T08:16:48;3.03;;;2.72;;
55545;SDS011;44768;50.298;127.520;2023-03-01T08:21:49;2.72;;;2.50;;
55545;SDS011;44768;50.298;127.520;2023-03-01T08:26:51;107.45;;;28.08;;
55545;SDS011;44768;50.298;127.520;2023-03-01T08:31:52;102.53;;;28.02;;
55545;SDS011;44768;50.298;127.520;2023-03-01T08:36:53;100.22;;;22.55;;
55545;SDS011;44768;50.298;127.520;2023-03-01T08:41:54;65.65;;;17.10;;
55545;SDS011;44768;50.298;127.520;2023-03-01T08:46:56;72.10;;;19.75;;
55545;SDS011;44768;50.298;127.520;2023-03-01T08:51:58;98.03;;;23.35;;
55545;SDS011;44768;50.298;127.520;2023-03-01T08:57:01;63.17;;;16.98;;
55545;SDS011;44768;50.298;127.520;2023-03-01T09:02:03;46.20;;;15.18;;
55545;SDS011;44768;50.298;127.520;2023-03-01T09:07:04;35.58;;;12.10;;
55545;SDS011;44768;50.298;127.520;2023-03-01T09:12:06;31.00;;;10.57;;
55545;SDS011;44768;50.298;127.520;2023-03-01T09:17:07;32.50;;;10.15;;
55545;SDS011;44768;50.298;127.520;2023-03-01T09:22:09;27.50;;;9.77;;
55545;SDS011;44768;50.298;127.520;2023-03-01T09:27:10;31.38;;;9.65;;
55545;SDS011;44768;50.298;127.520;2023-03-01T09:32:13;23.55;;;9.32;;
55545;SDS011;44768;50.298;127.520;2023-03-01T09:37:14;22.55;;;8.68;;
55545;SDS011;44768;50.298;127.520;2023-03-01T09:42:15;25.25;;;9.07;;
55545;SDS011;44768;50.298;127.520;2023-03-01T09:47:19;17.58;;;8.57;;
55545;SDS011;44768;50.298;127.520;2023-03-01T10:02:48;16.73;;;8.63;;
55545;SDS011;44768;50.298;127.520;2023-03-01T10:13:10;19.42;;;8.65;;
55545;SDS011;44768;50.298;127.520;2023-03-01T10:18:19;16.98;;;8.50;;
55545;SDS011;44768;50.298;127.520;2023-03-01T10:23:24;19.42;;;8.82;;
55545;SDS011;44768;50.298;127.520;2023-03-01T10:33:50;16.45;;;8.23;;
55545;SDS011;44768;50.298;127.520;2023-03-01T10:38:56;25.48;;;8.43;;
55545;SDS011;44768;50.298;127.520;2023-03-01T10:43:58;15.48;;;7.88;;
55545;SDS011;44768;50.298;127.520;2023-03-01T10:49:15;14.95;;;8.38;;
55545;SDS011;44768;50.298;127.520;2023-03-01T11:04:30;13.93;;;8.00;;
55545;SDS011;44768;50.298;127.520;2023-03-01T11:09:33;18.85;;;8.10;;
55545;SDS011;44768;50.298;127.520;2023-03-01T11:15:01;17.63;;;7.18;;
55545;SDS011;44768;50.298;127.520;2023-03-01T11:25:11;13.73;;;7.63;;
55545;SDS011;44768;50.298;127.520;2023-03-01T11:30:28;14.10;;;8.70;;
55545;SDS011;44768;50.298;127.520;2023-03-01T11:35:29;17.17;;;8.43;;
55545;SDS011;44768;50.298;127.520;2023-03-01T11:40:35;16.10;;;9.38;;
55545;SDS011;44768;50.298;127.520;2023-03-01T11:51:02;15.27;;;9.13;;
55545;SDS011;44768;50.298;127.520;2023-03-01T12:21:37;21.13;;;10.05;;
55545;SDS011;44768;50.298;127.520;2023-03-01T12:37:30;39.85;;;22.67;;
55545;SDS011;44768;50.298;127.520;2023-03-01T12:47:56;31.15;;;15.68;;
55545;SDS011;44768;50.298;127.520;2023-03-01T12:53:00;24.35;;;13.18;;
55545;SDS011;44768;50.298;127.520;2023-03-01T12:58:15;22.30;;;12.38;;
55545;SDS011;44768;50.298;127.520;2023-03-01T13:03:25;18.67;;;10.82;;
55545;SDS011;44768;50.298;127.520;2023-03-01T13:08:44;22.95;;;11.68;;
55545;SDS011;44768;50.298;127.520;2023-03-01T13:13:48;20.42;;;10.32;;
55545;SDS011;44768;50.298;127.520;2023-03-01T13:19:08;22.23;;;10.02;;
55545;SDS011;44768;50.298;127.520;2023-03-01T13:24:25;16.25;;;9.48;;
55545;SDS011;44768;50.298;127.520;2023-03-01T13:29:26;20.92;;;9.27;;
55545;SDS011;44768;50.298;127.520;2023-03-01T13:34:40;16.80;;;8.95;;
55545;SDS011;44768;50.298;127.520;2023-03-01T13:39:42;14.90;;;8.35;;
55545;SDS011;44768;50.298;127.520;2023-03-01T13:44:43;13.27;;;8.13;;
55545;SDS011;44768;50.298;127.520;2023-03-01T13:49:46;16.50;;;8.27;;
55545;SDS011;44768;50.298;127.520;2023-03-01T13:54:49;12.93;;;7.53;;
55545;SDS011;44768;50.298;127.520;2023-03-01T13:59:51;11.60;;;7.35;;
55545;SDS011;44768;50.298;127.520;2023-03-01T14:04:56;12.43;;;7.40;;
55545;SDS011;44768;50.298;127.520;2023-03-01T14:10:02;12.90;;;7.00;;
55545;SDS011;44768;50.298;127.520;2023-03-01T14:20:19;8.90;;;6.13;;
55545;SDS011;44768;50.298;127.520;2023-03-01T14:25:26;10.77;;;6.50;;
55545;SDS011;44768;50.298;127.520;2023-03-01T14:30:31;12.68;;;6.15;;
55545;SDS011;44768;50.298;127.520;2023-03-01T14:35:35;13.23;;;6.38;;
55545;SDS011;44768;50.298;127.520;2023-03-01T14:40:36;9.38;;;6.40;;
55545;SDS011;44768;50.298;127.520;2023-03-01T14:45:38;11.32;;;5.68;;
55545;SDS011;44768;50.298;127.520;2023-03-01T14:50:40;9.32;;;5.10;;
55545;SDS011;44768;50.298;127.520;2023-03-01T14:55:44;9.13;;;5.22;;
55545;SDS011;44768;50.298;127.520;2023-03-01T15:01:04;7.30;;;5.00;;
55545;SDS011;44768;50.298;127.520;2023-03-01T15:06:06;6.55;;;5.20;;
55545;SDS011;44768;50.298;127.520;2023-03-01T15:16:19;7.63;;;4.70;;
55545;SDS011;44768;50.298;127.520;2023-03-01T15:21:26;8.10;;;4.80;;
55545;SDS011;44768;50.298;127.520;2023-03-01T15:26:30;6.10;;;4.20;;
55545;SDS011;44768;50.298;127.520;2023-03-01T15:31:34;5.93;;;4.18;;
55545;SDS011;44768;50.298;127.520;2023-03-01T15:36:49;6.75;;;4.43;;
55545;SDS011;44768;50.298;127.520;2023-03-01T15:41:51;5.10;;;3.72;;
55545;SDS011;44768;50.298;127.520;2023-03-01T15:46:52;5.97;;;4.13;;
55545;SDS011;44768;50.298;127.520;2023-03-01T15:51:54;5.13;;;3.60;;
55545;SDS011;44768;50.298;127.520;2023-03-01T15:56:56;4.82;;;3.65;;
55545;SDS011;44768;50.298;127.520;2023-03-01T16:01:58;4.32;;;3.40;;
55545;SDS011;44768;50.298;127.520;2023-03-01T16:06:59;4.78;;;3.80;;
55545;SDS011;44768;50.298;127.520;2023-03-01T16:12:01;4.07;;;3.38;;
55545;SDS011;44768;50.298;127.520;2023-03-01T16:17:03;5.00;;;3.30;;
55545;SDS011;44768;50.298;127.520;2023-03-01T16:22:06;5.07;;;3.42;;
55545;SDS011;44768;50.298;127.520;2023-03-01T16:27:13;5.00;;;3.33;;
55545;SDS011;44768;50.298;127.520;2023-03-01T16:32:21;5.10;;;3.33;;
55545;SDS011;44768;50.298;127.520;2023-03-01T16:37:22;3.95;;;2.75;;
55545;SDS011;44768;50.298;127.520;2023-03-01T16:42:24;4.15;;;3.17;;
55545;SDS011;44768;50.298;127.520;2023-03-01T16:47:27;3.58;;;2.70;;
55545;SDS011;44768;50.298;127.520;2023-03-01T16:52:28;3.13;;;2.80;;
55545;SDS011;44768;50.298;127.520;2023-03-01T16:57:36;3.50;;;2.72;;
55545;SDS011;44768;50.298;127.520;2023-03-01T17:02:38;3.70;;;2.72;;
55545;SDS011;44768;50.298;127.520;2023-03-01T17:07:39;8.38;;;2.80;;
55545;SDS011;44768;50.298;127.520;2023-03-01T17:12:41;3.65;;;2.33;;
55545;SDS011;44768;50.298;127.520;2023-03-01T17:17:43;2.97;;;2.47;;
55545;SDS011;44768;50.298;127.520;2023-03-01T17:22:44;3.65;;;2.53;;
55545;SDS011;44768;50.298;127.520;2023-03-01T17:27:46;3.05;;;2.42;;
55545;SDS011;44768;50.298;127.520;2023-03-01T17:32:47;4.10;;;2.55;;
55545;SDS011;44768;50.298;127.520;2023-03-01T17:37:49;2.40;;;1.98;;
55545;SDS011;44768;50.298;127.520;2023-03-01T17:42:50;3.00;;;2.40;;
55545;SDS011;44768;50.298;127.520;2023-03-01T17:47:51;2.30;;;2.10;;
55545;SDS011;44768;50.298;127.520;2023-03-01T17:52:53;3.03;;;2.28;;
55545;SDS011;44768;50.298;127.520;2023-03-01T17:57:56;2.85;;;2.30;;
55545;SDS011;44768;50.298;127.520;2023-03-01T18:02:57;2.63;;;2.20;;
55545;SDS011;44768;50.298;127.520;2023-03-01T18:07:58;2.92;;;2.45;;
55545;SDS011;44768;50.298;127.520;2023-03-01T18:13:00;3.15;;;2.28;;
55545;SDS011;44768;50.298;127.520;2023-03-01T18:18:02;2.20;;;1.98;;
55545;SDS011;44768;50.298;127.520;2023-03-01T18:23:03;2.17;;;1.80;;
55545;SDS011;44768;50.298;127.520;2023-03-01T18:28:06;2.55;;;1.83;;
55545;SDS011;44768;50.298;127.520;2023-03-01T18:33:08;4.05;;;1.77;;
55545;SDS011;44768;50.298;127.520;2023-03-01T18:38:09;3.00;;;2.10;;
55545;SDS011;44768;50.298;127.520;2023-03-01T18:43:10;2.40;;;2.10;;
55545;SDS011;44768;50.298;127.520;2023-03-01T18:48:11;3.25;;;2.08;;
55545;SDS011;44768;50.298;127.520;2023-03-01T18:53:14;1.70;;;1.60;;
55545;SDS011;44768;50.298;127.520;2023-03-01T18:58:16;2.30;;;1.90;;
55545;SDS011;44768;50.298;127.520;2023-03-01T19:03:17;2.00;;;1.80;;
55545;SDS011;44768;50.298;127.520;2023-03-01T19:08:18;2.15;;;1.95;;
55545;SDS011;44768;50.298;127.520;2023-03-01T19:13:19;3.72;;;2.15;;
55545;SDS011;44768;50.298;127.520;2023-03-01T19:18:21;2.30;;;1.90;;
55545;SDS011;44768;50.298;127.520;2023-03-01T19:23:22;3.28;;;2.00;;
55545;SDS011;44768;50.298;127.520;2023-03-01T19:28:24;2.30;;;1.85;;
55545;SDS011;44768;50.298;127.520;2023-03-01T19:33:25;2.45;;;1.80;;
55545;SDS011;44768;50.298;127.520;2023-03-01T19:38:27;2.10;;;1.90;;
55545;SDS011;44768;50.298;127.520;2023-03-01T19:43:29;2.60;;;1.67;;
55545;SDS011;44768;50.298;127.520;2023-03-01T19:48:30;2.13;;;1.58;;
55545;SDS011;44768;50.298;127.520;2023-03-01T19:53:32;2.05;;;1.67;;
55545;SDS011;44768;50.298;127.520;2023-03-01T19:58:34;2.75;;;1.50;;
55545;SDS011;44768;50.298;127.520;2023-03-01T20:03:35;4.15;;;1.70;;
55545;SDS011;44768;50.298;127.520;2023-03-01T20:08:36;4.28;;;1.80;;
55545;SDS011;44768;50.298;127.520;2023-03-01T20:13:38;1.83;;;1.60;;
55545;SDS011;44768;50.298;127.520;2023-03-01T20:18:40;1.60;;;1.50;;
55545;SDS011;44768;50.298;127.520;2023-03-01T20:23:41;2.40;;;1.65;;
55545;SDS011;44768;50.298;127.520;2023-03-01T20:28:44;2.25;;;1.70;;
55545;SDS011;44768;50.298;127.520;2023-03-01T20:33:45;1.63;;;1.52;;
55545;SDS011;44768;50.298;127.520;2023-03-01T20:38:46;2.55;;;1.70;;
55545;SDS011;44768;50.298;127.520;2023-03-01T20:43:47;2.10;;;1.90;;
55545;SDS011;44768;50.298;127.520;2023-03-01T20:48:55;3.55;;;2.20;;
55545;SDS011;44768;50.298;127.520;2023-03-01T20:53:57;2.00;;;1.77;;
55545;SDS011;44768;50.298;127.520;2023-03-01T20:58:58;6.07;;;3.80;;
55545;SDS011;44768;50.298;127.520;2023-03-01T21:04:00;6.35;;;4.80;;
55545;SDS011;44768;50.298;127.520;2023-03-01T21:09:01;6.15;;;5.38;;
55545;SDS011;44768;50.298;127.520;2023-03-01T21:14:02;7.28;;;4.97;;
55545;SDS011;44768;50.298;127.520;2023-03-01T21:19:05;5.38;;;4.13;;
55545;SDS011;44768;50.298;127.520;2023-03-01T21:24:06;4.25;;;2.92;;
55545;SDS011;44768;50.298;127.520;2023-03-01T21:29:10;5.68;;;2.60;;
55545;SDS011;44768;50.298;127.520;2023-03-01T21:34:11;5.85;;;2.50;;
55545;SDS011;44768;50.298;127.520;2023-03-01T21:39:13;2.70;;;2.30;;
55545;SDS011;44768;50.298;127.520;2023-03-01T21:44:14;2.38;;;2.13;;
55545;SDS011;44768;50.298;127.520;2023-03-01T21:49:15;2.58;;;2.20;;
55545;SDS011;44768;50.298;127.520;2023-03-01T21:54:17;5.72;;;2.20;;
55545;SDS011;44768;50.298;127.520;2023-03-01T21:59:20;2.80;;;1.90;;
55545;SDS011;44768;50.298;127.520;2023-03-01T22:04:21;5.28;;;2.03;;
55545;SDS011;44768;50.298;127.520;2023-03-01T22:09:24;2.53;;;1.98;;
55545;SDS011;44768;50.298;127.520;2023-03-01T22:14:25;2.33;;;2.13;;
55545;SDS011;44768;50.298;127.520;2023-03-01T22:19:27;8.65;;;3.40;;
55545;SDS011;44768;50.298;127.520;2023-03-01T22:24:29;4.25;;;3.47;;
55545;SDS011;44768;50.298;127.520;2023-03-01T22:29:31;8.93;;;3.25;;
55545;SDS011;44768;50.298;127.520;2023-03-01T22:34:32;5.57;;;3.22;;
55545;SDS011;44768;50.298;127.520;2023-03-01T22:39:33;9.00;;;2.72;;
55545;SDS011;44768;50.298;127.520;2023-03-01T22:44:34;5.82;;;2.95;;
55545;SDS011;44768;50.298;127.520;2023-03-01T22:49:36;6.10;;;3.08;;
55545;SDS011;44768;50.298;127.520;2023-03-01T22:54:37;6.97;;;3.00;;
55545;SDS011;44768;50.298;127.520;2023-03-01T22:59:38;6.55;;;2.85;;
55545;SDS011;44768;50.298;127.520;2023-03-01T23:04:41;3.70;;;2.40;;
55545;SDS011;44768;50.298;127.520;2023-03-01T23:09:43;6.93;;;2.85;;
55545;SDS011;44768;50.298;127.520;2023-03-01T23:14:44;4.90;;;3.10;;
55545;SDS011;44768;50.298;127.520;2023-03-01T23:19:46;8.07;;;2.88;;
55545;SDS011;44768;50.298;127.520;2023-03-01T23:24:47;4.70;;;2.70;;
55545;SDS011;44768;50.298;127.520;2023-03-01T23:29:50;12.43;;;3.22;;
55545;SDS011;44768;50.298;127.520;2023-03-01T23:34:52;7.03;;;3.20;;
55545;SDS011;44768;50.298;127.520;2023-03-01T23:39:53;6.60;;;3.53;;
55545;SDS011;44768;50.298;127.520;2023-03-01T23:44:55;14.05;;;3.97;;
55545;SDS011;44768;50.298;127.520;2023-03-01T23:49:56;10.60;;;3.67;;
55545;SDS011;44768;50.298;127.520;2023-03-01T23:54:57;6.50;;;3.40;;
